Terminal Aerodrome Forecast
Issued by NWS

Home | Current Version | Previous Version | Text Only | Print | Product List | Glossary On
Versions: 1 2 3 4 5 6 7 8 9 10 11 12 13 14 15 16 17 18
000
FTAK31 PAJN 270600 AAA
TAFASI
TAF AMD
PASI 270644Z 2707/2806 VRB04KT P6SM -SHRA BKN015 BKN030 OVC080
      TEMPO 2707/2709 2SM SHRA BR OVC030
     FM270900 VRB04KT P6SM BCFG VCSH FEW005 BKN025 BKN050
     FM271800 23005KT P6SM VCSH BKN050=

USA.gov is the U.S. government's official web portal to all federal, state and local government web resources and services.